<?xml version="1.0" encoding="UTF-8" standalone="no" ?>
<gpx xmlns="http://www.topografix.com/GPX/1/1" xmlns:xsi="http://www.w3.org/2001/XMLSchema-instance" xsi:schemaLocation="http://www.topografix.com/GPX/1/1 http://www.topografix.com/GPX/1/1/gpx.xsd" version="1.1" creator="VisuGPX - https://www.visugpx.com">
  <metadata>
    <name>ASLPM marche Marans le 7 Décembre 2015</name>
    <desc><![CDATA[ASLPM marche Marans le 7 Décembre 2015
]]></desc>
  </metadata>
  <trk>
    <name><![CDATA[07/12/2015 09:02:45]]></name>
    <trkseg>
      <trkpt lat="46.30402" lon="-0.9853">
        <ele>6</ele>
        <time>2015-12-07T08:02:45Z</time>
      </trkpt>
      <trkpt lat="46.30402" lon="-0.98528">
        <ele>6</ele>
        <time>2015-12-07T08:02:48Z</time>
      </trkpt>
      <trkpt lat="46.30401" lon="-0.98527">
        <ele>6</ele>
        <time>2015-12-07T08:02:50Z</time>
      </trkpt>
      <trkpt lat="46.30402" lon="-0.98529">
        <ele>6</ele>
        <time>2015-12-07T08:02:53Z</time>
      </trkpt>
      <trkpt lat="46.30398" lon="-0.98524">
        <ele>6.1</ele>
        <time>2015-12-07T08:03:36Z</time>
      </trkpt>
      <trkpt lat="46.30382" lon="-0.98523">
        <ele>6.1</ele>
        <time>2015-12-07T08:04:17Z</time>
      </trkpt>
      <trkpt lat="46.30377" lon="-0.98524">
        <ele>6</ele>
        <time>2015-12-07T08:04:22Z</time>
      </trkpt>
      <trkpt lat="46.30367" lon="-0.9854">
        <ele>5.6</ele>
        <time>2015-12-07T08:04:38Z</time>
      </trkpt>
      <trkpt lat="46.30358" lon="-0.98558">
        <ele>5.1</ele>
        <time>2015-12-07T08:05:15Z</time>
      </trkpt>
      <trkpt lat="46.30356" lon="-0.9856">
        <ele>5.2</ele>
        <time>2015-12-07T08:05:17Z</time>
      </trkpt>
      <trkpt lat="46.30344" lon="-0.9854">
        <ele>5.5</ele>
        <time>2015-12-07T08:05:35Z</time>
      </trkpt>
      <trkpt lat="46.30344" lon="-0.98539">
        <ele>5.5</ele>
        <time>2015-12-07T08:05:36Z</time>
      </trkpt>
      <trkpt lat="46.30336" lon="-0.98524">
        <ele>5.2</ele>
        <time>2015-12-07T08:06:40Z</time>
      </trkpt>
      <trkpt lat="46.30336" lon="-0.98522">
        <ele>5.3</ele>
        <time>2015-12-07T08:07:30Z</time>
      </trkpt>
      <trkpt lat="46.30324" lon="-0.98502">
        <ele>6</ele>
        <time>2015-12-07T08:07:43Z</time>
      </trkpt>
      <trkpt lat="46.30312" lon="-0.98483">
        <ele>6</ele>
        <time>2015-12-07T08:07:58Z</time>
      </trkpt>
      <trkpt lat="46.30298" lon="-0.98466">
        <ele>5.8</ele>
        <time>2015-12-07T08:08:12Z</time>
      </trkpt>
      <trkpt lat="46.30285" lon="-0.98445">
        <ele>5.7</ele>
        <time>2015-12-07T08:08:26Z</time>
      </trkpt>
      <trkpt lat="46.30271" lon="-0.98427">
        <ele>6</ele>
        <time>2015-12-07T08:08:38Z</time>
      </trkpt>
      <trkpt lat="46.30259" lon="-0.98407">
        <ele>5.9</ele>
        <time>2015-12-07T08:08:53Z</time>
      </trkpt>
      <trkpt lat="46.30251" lon="-0.98383">
        <ele>5.7</ele>
        <time>2015-12-07T08:09:08Z</time>
      </trkpt>
      <trkpt lat="46.30249" lon="-0.98361">
        <ele>4.9</ele>
        <time>2015-12-07T08:09:19Z</time>
      </trkpt>
      <trkpt lat="46.30252" lon="-0.98336">
        <ele>4.9</ele>
        <time>2015-12-07T08:09:33Z</time>
      </trkpt>
      <trkpt lat="46.30258" lon="-0.9831">
        <ele>4.7</ele>
        <time>2015-12-07T08:09:48Z</time>
      </trkpt>
      <trkpt lat="46.30262" lon="-0.98284">
        <ele>3.8</ele>
        <time>2015-12-07T08:10:02Z</time>
      </trkpt>
      <trkpt lat="46.30266" lon="-0.98258">
        <ele>3.1</ele>
        <time>2015-12-07T08:10:16Z</time>
      </trkpt>
      <trkpt lat="46.30271" lon="-0.98233">
        <ele>2.8</ele>
        <time>2015-12-07T08:10:29Z</time>
      </trkpt>
      <trkpt lat="46.30274" lon="-0.98207">
        <ele>3.4</ele>
        <time>2015-12-07T08:10:41Z</time>
      </trkpt>
      <trkpt lat="46.30277" lon="-0.98182">
        <ele>4</ele>
        <time>2015-12-07T08:10:54Z</time>
      </trkpt>
      <trkpt lat="46.30281" lon="-0.98156">
        <ele>3.9</ele>
        <time>2015-12-07T08:11:08Z</time>
      </trkpt>
      <trkpt lat="46.30287" lon="-0.9813">
        <ele>3.7</ele>
        <time>2015-12-07T08:11:21Z</time>
      </trkpt>
      <trkpt lat="46.30291" lon="-0.98105">
        <ele>3.5</ele>
        <time>2015-12-07T08:11:34Z</time>
      </trkpt>
      <trkpt lat="46.30292" lon="-0.98086">
        <ele>3.5</ele>
        <time>2015-12-07T08:11:43Z</time>
      </trkpt>
      <trkpt lat="46.30295" lon="-0.98065">
        <ele>3.1</ele>
        <time>2015-12-07T08:11:53Z</time>
      </trkpt>
      <trkpt lat="46.30297" lon="-0.98039">
        <ele>3.4</ele>
        <time>2015-12-07T08:12:05Z</time>
      </trkpt>
      <trkpt lat="46.30301" lon="-0.98014">
        <ele>3.8</ele>
        <time>2015-12-07T08:12:16Z</time>
      </trkpt>
      <trkpt lat="46.30306" lon="-0.97987">
        <ele>4</ele>
        <time>2015-12-07T08:12:28Z</time>
      </trkpt>
      <trkpt lat="46.30311" lon="-0.97959">
        <ele>3.9</ele>
        <time>2015-12-07T08:12:40Z</time>
      </trkpt>
      <trkpt lat="46.30311" lon="-0.97957">
        <ele>3.9</ele>
        <time>2015-12-07T08:12:41Z</time>
      </trkpt>
      <trkpt lat="46.30313" lon="-0.97948">
        <ele>3.8</ele>
        <time>2015-12-07T08:12:45Z</time>
      </trkpt>
      <trkpt lat="46.30315" lon="-0.9792">
        <ele>3.7</ele>
        <time>2015-12-07T08:12:56Z</time>
      </trkpt>
      <trkpt lat="46.30319" lon="-0.97895">
        <ele>3.5</ele>
        <time>2015-12-07T08:13:07Z</time>
      </trkpt>
      <trkpt lat="46.30321" lon="-0.97868">
        <ele>3.1</ele>
        <time>2015-12-07T08:13:18Z</time>
      </trkpt>
      <trkpt lat="46.30323" lon="-0.97842">
        <ele>3</ele>
        <time>2015-12-07T08:13:29Z</time>
      </trkpt>
      <trkpt lat="46.30327" lon="-0.97815">
        <ele>2.9</ele>
        <time>2015-12-07T08:13:41Z</time>
      </trkpt>
      <trkpt lat="46.30328" lon="-0.97787">
        <ele>2.8</ele>
        <time>2015-12-07T08:13:53Z</time>
      </trkpt>
      <trkpt lat="46.30331" lon="-0.9776">
        <ele>2.9</ele>
        <time>2015-12-07T08:14:05Z</time>
      </trkpt>
      <trkpt lat="46.30334" lon="-0.97734">
        <ele>3.6</ele>
        <time>2015-12-07T08:14:16Z</time>
      </trkpt>
      <trkpt lat="46.30337" lon="-0.97706">
        <ele>3.9</ele>
        <time>2015-12-07T08:14:28Z</time>
      </trkpt>
      <trkpt lat="46.30337" lon="-0.9768">
        <ele>3.9</ele>
        <time>2015-12-07T08:14:40Z</time>
      </trkpt>
      <trkpt lat="46.30338" lon="-0.97653">
        <ele>3.4</ele>
        <time>2015-12-07T08:14:53Z</time>
      </trkpt>
      <trkpt lat="46.30339" lon="-0.97632">
        <ele>3</ele>
        <time>2015-12-07T08:15:03Z</time>
      </trkpt>
      <trkpt lat="46.30341" lon="-0.97617">
        <ele>3</ele>
        <time>2015-12-07T08:15:10Z</time>
      </trkpt>
      <trkpt lat="46.30343" lon="-0.97589">
        <ele>3</ele>
        <time>2015-12-07T08:15:23Z</time>
      </trkpt>
      <trkpt lat="46.3034" lon="-0.97563">
        <ele>3.5</ele>
        <time>2015-12-07T08:15:36Z</time>
      </trkpt>
      <trkpt lat="46.30341" lon="-0.97535">
        <ele>3.9</ele>
        <time>2015-12-07T08:15:49Z</time>
      </trkpt>
      <trkpt lat="46.3034" lon="-0.97508">
        <ele>4</ele>
        <time>2015-12-07T08:16:02Z</time>
      </trkpt>
      <trkpt lat="46.30342" lon="-0.9748">
        <ele>3.3</ele>
        <time>2015-12-07T08:16:15Z</time>
      </trkpt>
      <trkpt lat="46.30343" lon="-0.97454">
        <ele>3</ele>
        <time>2015-12-07T08:16:27Z</time>
      </trkpt>
      <trkpt lat="46.3034" lon="-0.97426">
        <ele>3</ele>
        <time>2015-12-07T08:16:40Z</time>
      </trkpt>
      <trkpt lat="46.30339" lon="-0.974">
        <ele>3.5</ele>
        <time>2015-12-07T08:16:53Z</time>
      </trkpt>
      <trkpt lat="46.30338" lon="-0.97373">
        <ele>3.8</ele>
        <time>2015-12-07T08:17:06Z</time>
      </trkpt>
      <trkpt lat="46.30337" lon="-0.97345">
        <ele>3.9</ele>
        <time>2015-12-07T08:17:18Z</time>
      </trkpt>
      <trkpt lat="46.30335" lon="-0.97317">
        <ele>3.4</ele>
        <time>2015-12-07T08:17:31Z</time>
      </trkpt>
      <trkpt lat="46.30335" lon="-0.9729">
        <ele>3</ele>
        <time>2015-12-07T08:17:44Z</time>
      </trkpt>
      <trkpt lat="46.30333" lon="-0.97263">
        <ele>3</ele>
        <time>2015-12-07T08:17:57Z</time>
      </trkpt>
      <trkpt lat="46.30331" lon="-0.97235">
        <ele>2.9</ele>
        <time>2015-12-07T08:18:10Z</time>
      </trkpt>
      <trkpt lat="46.30329" lon="-0.97207">
        <ele>2.8</ele>
        <time>2015-12-07T08:18:23Z</time>
      </trkpt>
      <trkpt lat="46.30327" lon="-0.97181">
        <ele>2.6</ele>
        <time>2015-12-07T08:18:35Z</time>
      </trkpt>
      <trkpt lat="46.30326" lon="-0.97155">
        <ele>2.7</ele>
        <time>2015-12-07T08:18:47Z</time>
      </trkpt>
      <trkpt lat="46.30325" lon="-0.97129">
        <ele>2.7</ele>
        <time>2015-12-07T08:18:59Z</time>
      </trkpt>
      <trkpt lat="46.30324" lon="-0.97103">
        <ele>2.6</ele>
        <time>2015-12-07T08:19:11Z</time>
      </trkpt>
      <trkpt lat="46.30322" lon="-0.97076">
        <ele>2.4</ele>
        <time>2015-12-07T08:19:23Z</time>
      </trkpt>
      <trkpt lat="46.30319" lon="-0.9705">
        <ele>2.1</ele>
        <time>2015-12-07T08:19:35Z</time>
      </trkpt>
      <trkpt lat="46.30317" lon="-0.97024">
        <ele>2.6</ele>
        <time>2015-12-07T08:19:47Z</time>
      </trkpt>
      <trkpt lat="46.30315" lon="-0.96998">
        <ele>2.7</ele>
        <time>2015-12-07T08:19:59Z</time>
      </trkpt>
      <trkpt lat="46.30313" lon="-0.96971">
        <ele>2.7</ele>
        <time>2015-12-07T08:20:11Z</time>
      </trkpt>
      <trkpt lat="46.30312" lon="-0.96944">
        <ele>2.8</ele>
        <time>2015-12-07T08:20:23Z</time>
      </trkpt>
      <trkpt lat="46.30313" lon="-0.96916">
        <ele>2.7</ele>
        <time>2015-12-07T08:20:36Z</time>
      </trkpt>
      <trkpt lat="46.30312" lon="-0.96888">
        <ele>2.8</ele>
        <time>2015-12-07T08:20:49Z</time>
      </trkpt>
      <trkpt lat="46.30309" lon="-0.96862">
        <ele>2.9</ele>
        <time>2015-12-07T08:21:01Z</time>
      </trkpt>
      <trkpt lat="46.30307" lon="-0.96836">
        <ele>2.9</ele>
        <time>2015-12-07T08:21:13Z</time>
      </trkpt>
      <trkpt lat="46.30306" lon="-0.96809">
        <ele>2.1</ele>
        <time>2015-12-07T08:21:25Z</time>
      </trkpt>
      <trkpt lat="46.30304" lon="-0.96782">
        <ele>2</ele>
        <time>2015-12-07T08:21:37Z</time>
      </trkpt>
      <trkpt lat="46.30303" lon="-0.96755">
        <ele>2</ele>
        <time>2015-12-07T08:21:49Z</time>
      </trkpt>
      <trkpt lat="46.30301" lon="-0.96728">
        <ele>2</ele>
        <time>2015-12-07T08:22:02Z</time>
      </trkpt>
      <trkpt lat="46.30299" lon="-0.967">
        <ele>2</ele>
        <time>2015-12-07T08:22:14Z</time>
      </trkpt>
      <trkpt lat="46.30297" lon="-0.96674">
        <ele>2</ele>
        <time>2015-12-07T08:22:26Z</time>
      </trkpt>
      <trkpt lat="46.30295" lon="-0.96647">
        <ele>2</ele>
        <time>2015-12-07T08:22:38Z</time>
      </trkpt>
      <trkpt lat="46.30292" lon="-0.96621">
        <ele>2</ele>
        <time>2015-12-07T08:22:50Z</time>
      </trkpt>
      <trkpt lat="46.3029" lon="-0.96594">
        <ele>2</ele>
        <time>2015-12-07T08:23:02Z</time>
      </trkpt>
      <trkpt lat="46.30289" lon="-0.96568">
        <ele>2</ele>
        <time>2015-12-07T08:23:14Z</time>
      </trkpt>
      <trkpt lat="46.30287" lon="-0.9654">
        <ele>2.4</ele>
        <time>2015-12-07T08:23:27Z</time>
      </trkpt>
      <trkpt lat="46.30286" lon="-0.96513">
        <ele>2.7</ele>
        <time>2015-12-07T08:23:39Z</time>
      </trkpt>
      <trkpt lat="46.30284" lon="-0.96486">
        <ele>2.8</ele>
        <time>2015-12-07T08:23:51Z</time>
      </trkpt>
      <trkpt lat="46.30282" lon="-0.96458">
        <ele>2.8</ele>
        <time>2015-12-07T08:24:03Z</time>
      </trkpt>
      <trkpt lat="46.30281" lon="-0.96431">
        <ele>2.9</ele>
        <time>2015-12-07T08:24:15Z</time>
      </trkpt>
      <trkpt lat="46.3028" lon="-0.96404">
        <ele>2.9</ele>
        <time>2015-12-07T08:24:27Z</time>
      </trkpt>
      <trkpt lat="46.3028" lon="-0.964">
        <ele>2.9</ele>
        <time>2015-12-07T08:24:29Z</time>
      </trkpt>
      <trkpt lat="46.30277" lon="-0.96373">
        <ele>3</ele>
        <time>2015-12-07T08:24:41Z</time>
      </trkpt>
      <trkpt lat="46.30275" lon="-0.96347">
        <ele>3</ele>
        <time>2015-12-07T08:24:53Z</time>
      </trkpt>
      <trkpt lat="46.30273" lon="-0.9632">
        <ele>2.4</ele>
        <time>2015-12-07T08:25:05Z</time>
      </trkpt>
      <trkpt lat="46.30272" lon="-0.96294">
        <ele>2</ele>
        <time>2015-12-07T08:25:17Z</time>
      </trkpt>
      <trkpt lat="46.30271" lon="-0.96268">
        <ele>2</ele>
        <time>2015-12-07T08:25:29Z</time>
      </trkpt>
      <trkpt lat="46.30269" lon="-0.96241">
        <ele>2</ele>
        <time>2015-12-07T08:25:41Z</time>
      </trkpt>
      <trkpt lat="46.30267" lon="-0.96215">
        <ele>1.9</ele>
        <time>2015-12-07T08:25:53Z</time>
      </trkpt>
      <trkpt lat="46.30265" lon="-0.96189">
        <ele>1.6</ele>
        <time>2015-12-07T08:26:05Z</time>
      </trkpt>
      <trkpt lat="46.30264" lon="-0.96162">
        <ele>2</ele>
        <time>2015-12-07T08:26:18Z</time>
      </trkpt>
      <trkpt lat="46.30263" lon="-0.96135">
        <ele>2</ele>
        <time>2015-12-07T08:26:30Z</time>
      </trkpt>
      <trkpt lat="46.30261" lon="-0.96109">
        <ele>2</ele>
        <time>2015-12-07T08:26:42Z</time>
      </trkpt>
      <trkpt lat="46.3026" lon="-0.96083">
        <ele>2.4</ele>
        <time>2015-12-07T08:26:54Z</time>
      </trkpt>
      <trkpt lat="46.30259" lon="-0.96057">
        <ele>2.7</ele>
        <time>2015-12-07T08:27:06Z</time>
      </trkpt>
      <trkpt lat="46.30257" lon="-0.96031">
        <ele>3.4</ele>
        <time>2015-12-07T08:27:18Z</time>
      </trkpt>
      <trkpt lat="46.30255" lon="-0.96004">
        <ele>2.9</ele>
        <time>2015-12-07T08:27:30Z</time>
      </trkpt>
      <trkpt lat="46.30253" lon="-0.95977">
        <ele>2.9</ele>
        <time>2015-12-07T08:27:42Z</time>
      </trkpt>
      <trkpt lat="46.30252" lon="-0.95951">
        <ele>2.9</ele>
        <time>2015-12-07T08:27:54Z</time>
      </trkpt>
      <trkpt lat="46.3025" lon="-0.95924">
        <ele>3</ele>
        <time>2015-12-07T08:28:06Z</time>
      </trkpt>
      <trkpt lat="46.30249" lon="-0.95897">
        <ele>3</ele>
        <time>2015-12-07T08:28:18Z</time>
      </trkpt>
      <trkpt lat="46.30247" lon="-0.95871">
        <ele>2.9</ele>
        <time>2015-12-07T08:28:30Z</time>
      </trkpt>
      <trkpt lat="46.30246" lon="-0.95844">
        <ele>2.3</ele>
        <time>2015-12-07T08:28:42Z</time>
      </trkpt>
      <trkpt lat="46.30245" lon="-0.95818">
        <ele>2</ele>
        <time>2015-12-07T08:28:54Z</time>
      </trkpt>
      <trkpt lat="46.30243" lon="-0.95791">
        <ele>2</ele>
        <time>2015-12-07T08:29:07Z</time>
      </trkpt>
      <trkpt lat="46.30242" lon="-0.95764">
        <ele>2.4</ele>
        <time>2015-12-07T08:29:19Z</time>
      </trkpt>
      <trkpt lat="46.3024" lon="-0.95737">
        <ele>2.3</ele>
        <time>2015-12-07T08:29:31Z</time>
      </trkpt>
      <trkpt lat="46.30238" lon="-0.9571">
        <ele>2</ele>
        <time>2015-12-07T08:29:43Z</time>
      </trkpt>
      <trkpt lat="46.30236" lon="-0.95683">
        <ele>2</ele>
        <time>2015-12-07T08:29:55Z</time>
      </trkpt>
      <trkpt lat="46.30235" lon="-0.95657">
        <ele>2</ele>
        <time>2015-12-07T08:30:07Z</time>
      </trkpt>
      <trkpt lat="46.30234" lon="-0.9563">
        <ele>2</ele>
        <time>2015-12-07T08:30:20Z</time>
      </trkpt>
      <trkpt lat="46.30233" lon="-0.95602">
        <ele>2.2</ele>
        <time>2015-12-07T08:30:33Z</time>
      </trkpt>
      <trkpt lat="46.30234" lon="-0.95576">
        <ele>2.8</ele>
        <time>2015-12-07T08:30:45Z</time>
      </trkpt>
      <trkpt lat="46.30246" lon="-0.95556">
        <ele>3.1</ele>
        <time>2015-12-07T08:30:57Z</time>
      </trkpt>
      <trkpt lat="46.30261" lon="-0.95541">
        <ele>2.5</ele>
        <time>2015-12-07T08:31:10Z</time>
      </trkpt>
      <trkpt lat="46.30279" lon="-0.95543">
        <ele>2.5</ele>
        <time>2015-12-07T08:31:25Z</time>
      </trkpt>
      <trkpt lat="46.30289" lon="-0.95545">
        <ele>2.4</ele>
        <time>2015-12-07T08:31:34Z</time>
      </trkpt>
      <trkpt lat="46.30282" lon="-0.95538">
        <ele>2.6</ele>
        <time>2015-12-07T08:32:27Z</time>
      </trkpt>
      <trkpt lat="46.30278" lon="-0.95526">
        <ele>3</ele>
        <time>2015-12-07T08:34:07Z</time>
      </trkpt>
      <trkpt lat="46.30282" lon="-0.95523">
        <ele>2.8</ele>
        <time>2015-12-07T08:35:56Z</time>
      </trkpt>
      <trkpt lat="46.30299" lon="-0.95512">
        <ele>2.4</ele>
        <time>2015-12-07T08:36:14Z</time>
      </trkpt>
      <trkpt lat="46.30316" lon="-0.95503">
        <ele>2.5</ele>
        <time>2015-12-07T08:36:27Z</time>
      </trkpt>
      <trkpt lat="46.30334" lon="-0.95493">
        <ele>2.7</ele>
        <time>2015-12-07T08:36:39Z</time>
      </trkpt>
      <trkpt lat="46.30352" lon="-0.95484">
        <ele>2.4</ele>
        <time>2015-12-07T08:36:51Z</time>
      </trkpt>
      <trkpt lat="46.30369" lon="-0.95475">
        <ele>2.3</ele>
        <time>2015-12-07T08:37:03Z</time>
      </trkpt>
      <trkpt lat="46.30386" lon="-0.95466">
        <ele>2.7</ele>
        <time>2015-12-07T08:37:15Z</time>
      </trkpt>
      <trkpt lat="46.304" lon="-0.9545">
        <ele>2.4</ele>
        <time>2015-12-07T08:37:27Z</time>
      </trkpt>
      <trkpt lat="46.30397" lon="-0.95427">
        <ele>2.5</ele>
        <time>2015-12-07T08:37:38Z</time>
      </trkpt>
      <trkpt lat="46.30391" lon="-0.95403">
        <ele>2.5</ele>
        <time>2015-12-07T08:37:50Z</time>
      </trkpt>
      <trkpt lat="46.30385" lon="-0.95376">
        <ele>2</ele>
        <time>2015-12-07T08:38:03Z</time>
      </trkpt>
      <trkpt lat="46.30379" lon="-0.9535">
        <ele>2</ele>
        <time>2015-12-07T08:38:15Z</time>
      </trkpt>
      <trkpt lat="46.30373" lon="-0.95325">
        <ele>2</ele>
        <time>2015-12-07T08:38:27Z</time>
      </trkpt>
      <trkpt lat="46.30368" lon="-0.953">
        <ele>2</ele>
        <time>2015-12-07T08:38:39Z</time>
      </trkpt>
      <trkpt lat="46.30361" lon="-0.95275">
        <ele>2</ele>
        <time>2015-12-07T08:38:51Z</time>
      </trkpt>
      <trkpt lat="46.30355" lon="-0.95251">
        <ele>2</ele>
        <time>2015-12-07T08:39:03Z</time>
      </trkpt>
      <trkpt lat="46.30349" lon="-0.95226">
        <ele>2</ele>
        <time>2015-12-07T08:39:15Z</time>
      </trkpt>
      <trkpt lat="46.30343" lon="-0.95201">
        <ele>2.5</ele>
        <time>2015-12-07T08:39:27Z</time>
      </trkpt>
      <trkpt lat="46.30336" lon="-0.95174">
        <ele>2.3</ele>
        <time>2015-12-07T08:39:40Z</time>
      </trkpt>
      <trkpt lat="46.30331" lon="-0.9515">
        <ele>2</ele>
        <time>2015-12-07T08:39:52Z</time>
      </trkpt>
      <trkpt lat="46.30326" lon="-0.95125">
        <ele>2</ele>
        <time>2015-12-07T08:40:04Z</time>
      </trkpt>
      <trkpt lat="46.3032" lon="-0.95098">
        <ele>2</ele>
        <time>2015-12-07T08:40:17Z</time>
      </trkpt>
      <trkpt lat="46.30313" lon="-0.95073">
        <ele>2</ele>
        <time>2015-12-07T08:40:29Z</time>
      </trkpt>
      <trkpt lat="46.30307" lon="-0.95049">
        <ele>2</ele>
        <time>2015-12-07T08:40:41Z</time>
      </trkpt>
      <trkpt lat="46.30301" lon="-0.95023">
        <ele>2</ele>
        <time>2015-12-07T08:40:53Z</time>
      </trkpt>
      <trkpt lat="46.30295" lon="-0.94998">
        <ele>2</ele>
        <time>2015-12-07T08:41:05Z</time>
      </trkpt>
      <trkpt lat="46.30293" lon="-0.94973">
        <ele>2</ele>
        <time>2015-12-07T08:41:17Z</time>
      </trkpt>
      <trkpt lat="46.30308" lon="-0.94959">
        <ele>2</ele>
        <time>2015-12-07T08:41:30Z</time>
      </trkpt>
      <trkpt lat="46.3031" lon="-0.94957">
        <ele>2</ele>
        <time>2015-12-07T08:41:32Z</time>
      </trkpt>
      <trkpt lat="46.30328" lon="-0.94954">
        <ele>2</ele>
        <time>2015-12-07T08:41:46Z</time>
      </trkpt>
      <trkpt lat="46.30346" lon="-0.94949">
        <ele>2</ele>
        <time>2015-12-07T08:41:58Z</time>
      </trkpt>
      <trkpt lat="46.30364" lon="-0.94944">
        <ele>2</ele>
        <time>2015-12-07T08:42:10Z</time>
      </trkpt>
      <trkpt lat="46.30383" lon="-0.94939">
        <ele>2</ele>
        <time>2015-12-07T08:42:23Z</time>
      </trkpt>
      <trkpt lat="46.30402" lon="-0.94934">
        <ele>2</ele>
        <time>2015-12-07T08:42:35Z</time>
      </trkpt>
      <trkpt lat="46.3042" lon="-0.9493">
        <ele>2</ele>
        <time>2015-12-07T08:42:47Z</time>
      </trkpt>
      <trkpt lat="46.30438" lon="-0.94925">
        <ele>2</ele>
        <time>2015-12-07T08:42:59Z</time>
      </trkpt>
      <trkpt lat="46.30457" lon="-0.94921">
        <ele>2</ele>
        <time>2015-12-07T08:43:11Z</time>
      </trkpt>
      <trkpt lat="46.30474" lon="-0.94917">
        <ele>2</ele>
        <time>2015-12-07T08:43:23Z</time>
      </trkpt>
      <trkpt lat="46.30493" lon="-0.94914">
        <ele>2</ele>
        <time>2015-12-07T08:43:35Z</time>
      </trkpt>
      <trkpt lat="46.30511" lon="-0.94917">
        <ele>2</ele>
        <time>2015-12-07T08:43:47Z</time>
      </trkpt>
      <trkpt lat="46.3053" lon="-0.94916">
        <ele>2</ele>
        <time>2015-12-07T08:43:59Z</time>
      </trkpt>
      <trkpt lat="46.30547" lon="-0.94911">
        <ele>2</ele>
        <time>2015-12-07T08:44:11Z</time>
      </trkpt>
      <trkpt lat="46.30565" lon="-0.94906">
        <ele>2</ele>
        <time>2015-12-07T08:44:23Z</time>
      </trkpt>
      <trkpt lat="46.30584" lon="-0.94902">
        <ele>2</ele>
        <time>2015-12-07T08:44:35Z</time>
      </trkpt>
      <trkpt lat="46.30602" lon="-0.94897">
        <ele>2</ele>
        <time>2015-12-07T08:44:47Z</time>
      </trkpt>
      <trkpt lat="46.30621" lon="-0.94892">
        <ele>2</ele>
        <time>2015-12-07T08:44:59Z</time>
      </trkpt>
      <trkpt lat="46.30639" lon="-0.94888">
        <ele>2</ele>
        <time>2015-12-07T08:45:11Z</time>
      </trkpt>
      <trkpt lat="46.30658" lon="-0.94885">
        <ele>2</ele>
        <time>2015-12-07T08:45:24Z</time>
      </trkpt>
      <trkpt lat="46.30678" lon="-0.94882">
        <ele>2</ele>
        <time>2015-12-07T08:45:37Z</time>
      </trkpt>
      <trkpt lat="46.30697" lon="-0.94878">
        <ele>2</ele>
        <time>2015-12-07T08:45:50Z</time>
      </trkpt>
      <trkpt lat="46.30715" lon="-0.94875">
        <ele>2</ele>
        <time>2015-12-07T08:46:02Z</time>
      </trkpt>
      <trkpt lat="46.30733" lon="-0.94872">
        <ele>2</ele>
        <time>2015-12-07T08:46:14Z</time>
      </trkpt>
      <trkpt lat="46.30752" lon="-0.94866">
        <ele>2</ele>
        <time>2015-12-07T08:46:27Z</time>
      </trkpt>
      <trkpt lat="46.30771" lon="-0.9486">
        <ele>2</ele>
        <time>2015-12-07T08:46:40Z</time>
      </trkpt>
      <trkpt lat="46.30789" lon="-0.94854">
        <ele>2</ele>
        <time>2015-12-07T08:46:52Z</time>
      </trkpt>
      <trkpt lat="46.30806" lon="-0.94848">
        <ele>2</ele>
        <time>2015-12-07T08:47:04Z</time>
      </trkpt>
      <trkpt lat="46.30825" lon="-0.94844">
        <ele>2</ele>
        <time>2015-12-07T08:47:17Z</time>
      </trkpt>
      <trkpt lat="46.30844" lon="-0.9484">
        <ele>1.7</ele>
        <time>2015-12-07T08:47:30Z</time>
      </trkpt>
      <trkpt lat="46.30862" lon="-0.94836">
        <ele>1.1</ele>
        <time>2015-12-07T08:47:42Z</time>
      </trkpt>
      <trkpt lat="46.3088" lon="-0.94832">
        <ele>1.7</ele>
        <time>2015-12-07T08:47:54Z</time>
      </trkpt>
      <trkpt lat="46.30899" lon="-0.94828">
        <ele>2</ele>
        <time>2015-12-07T08:48:07Z</time>
      </trkpt>
      <trkpt lat="46.30919" lon="-0.94825">
        <ele>2</ele>
        <time>2015-12-07T08:48:20Z</time>
      </trkpt>
      <trkpt lat="46.30938" lon="-0.94822">
        <ele>2</ele>
        <time>2015-12-07T08:48:33Z</time>
      </trkpt>
      <trkpt lat="46.30956" lon="-0.94818">
        <ele>2</ele>
        <time>2015-12-07T08:48:45Z</time>
      </trkpt>
      <trkpt lat="46.30974" lon="-0.94816">
        <ele>2</ele>
        <time>2015-12-07T08:48:57Z</time>
      </trkpt>
      <trkpt lat="46.30992" lon="-0.94813">
        <ele>2</ele>
        <time>2015-12-07T08:49:09Z</time>
      </trkpt>
      <trkpt lat="46.3101" lon="-0.9481">
        <ele>2</ele>
        <time>2015-12-07T08:49:21Z</time>
      </trkpt>
      <trkpt lat="46.31029" lon="-0.94806">
        <ele>2</ele>
        <time>2015-12-07T08:49:34Z</time>
      </trkpt>
      <trkpt lat="46.31047" lon="-0.94801">
        <ele>2</ele>
        <time>2015-12-07T08:49:46Z</time>
      </trkpt>
      <trkpt lat="46.31065" lon="-0.94796">
        <ele>2</ele>
        <time>2015-12-07T08:49:58Z</time>
      </trkpt>
      <trkpt lat="46.31083" lon="-0.9479">
        <ele>2</ele>
        <time>2015-12-07T08:50:10Z</time>
      </trkpt>
      <trkpt lat="46.31101" lon="-0.94782">
        <ele>2</ele>
        <time>2015-12-07T08:50:22Z</time>
      </trkpt>
      <trkpt lat="46.31112" lon="-0.94761">
        <ele>2</ele>
        <time>2015-12-07T08:50:34Z</time>
      </trkpt>
      <trkpt lat="46.31111" lon="-0.94736">
        <ele>2</ele>
        <time>2015-12-07T08:50:45Z</time>
      </trkpt>
      <trkpt lat="46.3111" lon="-0.94709">
        <ele>2</ele>
        <time>2015-12-07T08:50:57Z</time>
      </trkpt>
      <trkpt lat="46.31111" lon="-0.9469">
        <ele>2</ele>
        <time>2015-12-07T08:51:07Z</time>
      </trkpt>
      <trkpt lat="46.31116" lon="-0.94688">
        <ele>2</ele>
        <time>2015-12-07T08:51:11Z</time>
      </trkpt>
      <trkpt lat="46.31135" lon="-0.94688">
        <ele>2</ele>
        <time>2015-12-07T08:51:24Z</time>
      </trkpt>
      <trkpt lat="46.31153" lon="-0.9469">
        <ele>2</ele>
        <time>2015-12-07T08:51:36Z</time>
      </trkpt>
      <trkpt lat="46.31171" lon="-0.94687">
        <ele>2.1</ele>
        <time>2015-12-07T08:51:48Z</time>
      </trkpt>
      <trkpt lat="46.3119" lon="-0.94683">
        <ele>2.5</ele>
        <time>2015-12-07T08:52:00Z</time>
      </trkpt>
      <trkpt lat="46.31209" lon="-0.94679">
        <ele>2.2</ele>
        <time>2015-12-07T08:52:12Z</time>
      </trkpt>
      <trkpt lat="46.31227" lon="-0.94681">
        <ele>2</ele>
        <time>2015-12-07T08:52:24Z</time>
      </trkpt>
      <trkpt lat="46.31246" lon="-0.9468">
        <ele>2</ele>
        <time>2015-12-07T08:52:36Z</time>
      </trkpt>
      <trkpt lat="46.31264" lon="-0.94676">
        <ele>2</ele>
        <time>2015-12-07T08:52:48Z</time>
      </trkpt>
      <trkpt lat="46.31283" lon="-0.9467">
        <ele>2.2</ele>
        <time>2015-12-07T08:53:00Z</time>
      </trkpt>
      <trkpt lat="46.31302" lon="-0.94665">
        <ele>2.8</ele>
        <time>2015-12-07T08:53:12Z</time>
      </trkpt>
      <trkpt lat="46.31321" lon="-0.9466">
        <ele>2.3</ele>
        <time>2015-12-07T08:53:24Z</time>
      </trkpt>
      <trkpt lat="46.31339" lon="-0.94658">
        <ele>2</ele>
        <time>2015-12-07T08:53:35Z</time>
      </trkpt>
      <trkpt lat="46.31359" lon="-0.94654">
        <ele>2</ele>
        <time>2015-12-07T08:53:47Z</time>
      </trkpt>
      <trkpt lat="46.31377" lon="-0.94652">
        <ele>2</ele>
        <time>2015-12-07T08:53:58Z</time>
      </trkpt>
      <trkpt lat="46.31396" lon="-0.9465">
        <ele>2</ele>
        <time>2015-12-07T08:54:10Z</time>
      </trkpt>
      <trkpt lat="46.31415" lon="-0.94649">
        <ele>2</ele>
        <time>2015-12-07T08:54:22Z</time>
      </trkpt>
      <trkpt lat="46.31433" lon="-0.94645">
        <ele>2</ele>
        <time>2015-12-07T08:54:34Z</time>
      </trkpt>
      <trkpt lat="46.31451" lon="-0.9464">
        <ele>2.2</ele>
        <time>2015-12-07T08:54:45Z</time>
      </trkpt>
      <trkpt lat="46.3147" lon="-0.94635">
        <ele>2.8</ele>
        <time>2015-12-07T08:54:57Z</time>
      </trkpt>
      <trkpt lat="46.31488" lon="-0.9463">
        <ele>2.3</ele>
        <time>2015-12-07T08:55:09Z</time>
      </trkpt>
      <trkpt lat="46.31507" lon="-0.94623">
        <ele>2.2</ele>
        <time>2015-12-07T08:55:21Z</time>
      </trkpt>
      <trkpt lat="46.31525" lon="-0.94617">
        <ele>2.9</ele>
        <time>2015-12-07T08:55:33Z</time>
      </trkpt>
      <trkpt lat="46.31542" lon="-0.9461">
        <ele>3</ele>
        <time>2015-12-07T08:55:44Z</time>
      </trkpt>
      <trkpt lat="46.31561" lon="-0.94603">
        <ele>2.6</ele>
        <time>2015-12-07T08:55:56Z</time>
      </trkpt>
      <trkpt lat="46.3158" lon="-0.94595">
        <ele>2.1</ele>
        <time>2015-12-07T08:56:08Z</time>
      </trkpt>
      <trkpt lat="46.31598" lon="-0.94587">
        <ele>2.5</ele>
        <time>2015-12-07T08:56:20Z</time>
      </trkpt>
      <trkpt lat="46.31616" lon="-0.9458">
        <ele>2.7</ele>
        <time>2015-12-07T08:56:32Z</time>
      </trkpt>
      <trkpt lat="46.31634" lon="-0.94573">
        <ele>2.1</ele>
        <time>2015-12-07T08:56:44Z</time>
      </trkpt>
      <trkpt lat="46.31652" lon="-0.94566">
        <ele>2</ele>
        <time>2015-12-07T08:56:57Z</time>
      </trkpt>
      <trkpt lat="46.3167" lon="-0.94563">
        <ele>2.1</ele>
        <time>2015-12-07T08:57:14Z</time>
      </trkpt>
      <trkpt lat="46.31669" lon="-0.94565">
        <ele>2.1</ele>
        <time>2015-12-07T09:00:03Z</time>
      </trkpt>
      <trkpt lat="46.31671" lon="-0.94568">
        <ele>2.2</ele>
        <time>2015-12-07T09:03:57Z</time>
      </trkpt>
      <trkpt lat="46.31675" lon="-0.94574">
        <ele>2.3</ele>
        <time>2015-12-07T09:04:02Z</time>
      </trkpt>
      <trkpt lat="46.31678" lon="-0.9458">
        <ele>2.4</ele>
        <time>2015-12-07T09:04:06Z</time>
      </trkpt>
      <trkpt lat="46.31684" lon="-0.94605">
        <ele>2.6</ele>
        <time>2015-12-07T09:04:20Z</time>
      </trkpt>
      <trkpt lat="46.3169" lon="-0.9463">
        <ele>2.3</ele>
        <time>2015-12-07T09:04:33Z</time>
      </trkpt>
      <trkpt lat="46.31697" lon="-0.94654">
        <ele>2.6</ele>
        <time>2015-12-07T09:04:46Z</time>
      </trkpt>
      <trkpt lat="46.31706" lon="-0.94678">
        <ele>2.8</ele>
        <time>2015-12-07T09:04:59Z</time>
      </trkpt>
      <trkpt lat="46.31709" lon="-0.94689">
        <ele>2.6</ele>
        <time>2015-12-07T09:05:05Z</time>
      </trkpt>
      <trkpt lat="46.3171" lon="-0.94693">
        <ele>2.6</ele>
        <time>2015-12-07T09:05:07Z</time>
      </trkpt>
      <trkpt lat="46.31716" lon="-0.94719">
        <ele>2.1</ele>
        <time>2015-12-07T09:05:20Z</time>
      </trkpt>
      <trkpt lat="46.31723" lon="-0.94744">
        <ele>2.8</ele>
        <time>2015-12-07T09:05:33Z</time>
      </trkpt>
      <trkpt lat="46.31728" lon="-0.94771">
        <ele>3</ele>
        <time>2015-12-07T09:05:46Z</time>
      </trkpt>
      <trkpt lat="46.3173" lon="-0.94798">
        <ele>3</ele>
        <time>2015-12-07T09:05:59Z</time>
      </trkpt>
      <trkpt lat="46.31731" lon="-0.94825">
        <ele>2.8</ele>
        <time>2015-12-07T09:06:11Z</time>
      </trkpt>
      <trkpt lat="46.31733" lon="-0.94852">
        <ele>2.9</ele>
        <time>2015-12-07T09:06:24Z</time>
      </trkpt>
      <trkpt lat="46.31735" lon="-0.94877">
        <ele>2.9</ele>
        <time>2015-12-07T09:06:35Z</time>
      </trkpt>
      <trkpt lat="46.31737" lon="-0.94903">
        <ele>2.8</ele>
        <time>2015-12-07T09:06:47Z</time>
      </trkpt>
      <trkpt lat="46.3174" lon="-0.94929">
        <ele>2.6</ele>
        <time>2015-12-07T09:06:59Z</time>
      </trkpt>
      <trkpt lat="46.31742" lon="-0.94956">
        <ele>2.4</ele>
        <time>2015-12-07T09:07:11Z</time>
      </trkpt>
      <trkpt lat="46.31747" lon="-0.94983">
        <ele>2.3</ele>
        <time>2015-12-07T09:07:24Z</time>
      </trkpt>
      <trkpt lat="46.3175" lon="-0.95011">
        <ele>3</ele>
        <time>2015-12-07T09:07:37Z</time>
      </trkpt>
      <trkpt lat="46.31753" lon="-0.95037">
        <ele>2.7</ele>
        <time>2015-12-07T09:07:49Z</time>
      </trkpt>
      <trkpt lat="46.31754" lon="-0.95045">
        <ele>2.5</ele>
        <time>2015-12-07T09:07:53Z</time>
      </trkpt>
      <trkpt lat="46.31755" lon="-0.95054">
        <ele>2.2</ele>
        <time>2015-12-07T09:07:57Z</time>
      </trkpt>
      <trkpt lat="46.31758" lon="-0.9508">
        <ele>2.3</ele>
        <time>2015-12-07T09:08:09Z</time>
      </trkpt>
      <trkpt lat="46.31759" lon="-0.95107">
        <ele>2.3</ele>
        <time>2015-12-07T09:08:22Z</time>
      </trkpt>
      <trkpt lat="46.31761" lon="-0.95134">
        <ele>2.4</ele>
        <time>2015-12-07T09:08:35Z</time>
      </trkpt>
      <trkpt lat="46.31763" lon="-0.95161">
        <ele>2.9</ele>
        <time>2015-12-07T09:08:48Z</time>
      </trkpt>
      <trkpt lat="46.31761" lon="-0.95188">
        <ele>2.7</ele>
        <time>2015-12-07T09:09:01Z</time>
      </trkpt>
      <trkpt lat="46.31762" lon="-0.95214">
        <ele>2.6</ele>
        <time>2015-12-07T09:09:14Z</time>
      </trkpt>
      <trkpt lat="46.31778" lon="-0.95225">
        <ele>2.1</ele>
        <time>2015-12-07T09:09:26Z</time>
      </trkpt>
      <trkpt lat="46.31796" lon="-0.95226">
        <ele>2.7</ele>
        <time>2015-12-07T09:09:38Z</time>
      </trkpt>
      <trkpt lat="46.31815" lon="-0.9523">
        <ele>2.7</ele>
        <time>2015-12-07T09:09:51Z</time>
      </trkpt>
      <trkpt lat="46.31834" lon="-0.95235">
        <ele>2</ele>
        <time>2015-12-07T09:10:04Z</time>
      </trkpt>
      <trkpt lat="46.31852" lon="-0.95241">
        <ele>2</ele>
        <time>2015-12-07T09:10:17Z</time>
      </trkpt>
      <trkpt lat="46.31869" lon="-0.9525">
        <ele>1.7</ele>
        <time>2015-12-07T09:10:29Z</time>
      </trkpt>
      <trkpt lat="46.31885" lon="-0.95265">
        <ele>1.6</ele>
        <time>2015-12-07T09:10:42Z</time>
      </trkpt>
      <trkpt lat="46.31899" lon="-0.95285">
        <ele>1.7</ele>
        <time>2015-12-07T09:10:55Z</time>
      </trkpt>
      <trkpt lat="46.31912" lon="-0.95302">
        <ele>1.9</ele>
        <time>2015-12-07T09:11:07Z</time>
      </trkpt>
      <trkpt lat="46.31927" lon="-0.95319">
        <ele>1.8</ele>
        <time>2015-12-07T09:11:20Z</time>
      </trkpt>
      <trkpt lat="46.31932" lon="-0.95324">
        <ele>1.8</ele>
        <time>2015-12-07T09:11:24Z</time>
      </trkpt>
      <trkpt lat="46.31947" lon="-0.95341">
        <ele>2</ele>
        <time>2015-12-07T09:11:37Z</time>
      </trkpt>
      <trkpt lat="46.31962" lon="-0.95357">
        <ele>1.5</ele>
        <time>2015-12-07T09:11:50Z</time>
      </trkpt>
      <trkpt lat="46.31977" lon="-0.95374">
        <ele>1.9</ele>
        <time>2015-12-07T09:12:03Z</time>
      </trkpt>
      <trkpt lat="46.31991" lon="-0.95393">
        <ele>2.4</ele>
        <time>2015-12-07T09:12:16Z</time>
      </trkpt>
      <trkpt lat="46.32003" lon="-0.95413">
        <ele>2.8</ele>
        <time>2015-12-07T09:12:29Z</time>
      </trkpt>
      <trkpt lat="46.32009" lon="-0.95438">
        <ele>2.7</ele>
        <time>2015-12-07T09:12:43Z</time>
      </trkpt>
      <trkpt lat="46.32006" lon="-0.95465">
        <ele>2.6</ele>
        <time>2015-12-07T09:12:55Z</time>
      </trkpt>
      <trkpt lat="46.32005" lon="-0.95492">
        <ele>2.8</ele>
        <time>2015-12-07T09:13:08Z</time>
      </trkpt>
      <trkpt lat="46.32005" lon="-0.95519">
        <ele>2.8</ele>
        <time>2015-12-07T09:13:20Z</time>
      </trkpt>
      <trkpt lat="46.32011" lon="-0.95546">
        <ele>2.3</ele>
        <time>2015-12-07T09:13:33Z</time>
      </trkpt>
      <trkpt lat="46.3202" lon="-0.95568">
        <ele>2.2</ele>
        <time>2015-12-07T09:13:45Z</time>
      </trkpt>
      <trkpt lat="46.32034" lon="-0.95587">
        <ele>2.6</ele>
        <time>2015-12-07T09:13:58Z</time>
      </trkpt>
      <trkpt lat="46.32049" lon="-0.95603">
        <ele>2</ele>
        <time>2015-12-07T09:14:10Z</time>
      </trkpt>
      <trkpt lat="46.32064" lon="-0.9562">
        <ele>2</ele>
        <time>2015-12-07T09:14:23Z</time>
      </trkpt>
      <trkpt lat="46.32073" lon="-0.95642">
        <ele>2.3</ele>
        <time>2015-12-07T09:14:35Z</time>
      </trkpt>
      <trkpt lat="46.32078" lon="-0.95669">
        <ele>1.4</ele>
        <time>2015-12-07T09:14:48Z</time>
      </trkpt>
      <trkpt lat="46.32076" lon="-0.95697">
        <ele>1.7</ele>
        <time>2015-12-07T09:15:01Z</time>
      </trkpt>
      <trkpt lat="46.32073" lon="-0.95723">
        <ele>2.1</ele>
        <time>2015-12-07T09:15:13Z</time>
      </trkpt>
      <trkpt lat="46.32071" lon="-0.9575">
        <ele>1.9</ele>
        <time>2015-12-07T09:15:25Z</time>
      </trkpt>
      <trkpt lat="46.3207" lon="-0.95778">
        <ele>2</ele>
        <time>2015-12-07T09:15:38Z</time>
      </trkpt>
      <trkpt lat="46.3207" lon="-0.95795">
        <ele>2.2</ele>
        <time>2015-12-07T09:15:47Z</time>
      </trkpt>
      <trkpt lat="46.3207" lon="-0.95798">
        <ele>2.3</ele>
        <time>2015-12-07T09:15:49Z</time>
      </trkpt>
      <trkpt lat="46.32069" lon="-0.95825">
        <ele>2.5</ele>
        <time>2015-12-07T09:16:04Z</time>
      </trkpt>
      <trkpt lat="46.32072" lon="-0.95852">
        <ele>2</ele>
        <time>2015-12-07T09:16:15Z</time>
      </trkpt>
      <trkpt lat="46.32077" lon="-0.95877">
        <ele>1.9</ele>
        <time>2015-12-07T09:16:27Z</time>
      </trkpt>
      <trkpt lat="46.32084" lon="-0.95901">
        <ele>2.4</ele>
        <time>2015-12-07T09:16:39Z</time>
      </trkpt>
      <trkpt lat="46.32092" lon="-0.95926">
        <ele>2.4</ele>
        <time>2015-12-07T09:16:52Z</time>
      </trkpt>
      <trkpt lat="46.32101" lon="-0.95951">
        <ele>1.9</ele>
        <time>2015-12-07T09:17:05Z</time>
      </trkpt>
      <trkpt lat="46.32112" lon="-0.95974">
        <ele>2</ele>
        <time>2015-12-07T09:17:18Z</time>
      </trkpt>
      <trkpt lat="46.32121" lon="-0.95998">
        <ele>2.2</ele>
        <time>2015-12-07T09:17:32Z</time>
      </trkpt>
      <trkpt lat="46.3213" lon="-0.96022">
        <ele>1.6</ele>
        <time>2015-12-07T09:17:45Z</time>
      </trkpt>
      <trkpt lat="46.32138" lon="-0.96041">
        <ele>2</ele>
        <time>2015-12-07T09:17:55Z</time>
      </trkpt>
      <trkpt lat="46.32147" lon="-0.96064">
        <ele>2.4</ele>
        <time>2015-12-07T09:18:07Z</time>
      </trkpt>
      <trkpt lat="46.32157" lon="-0.96086">
        <ele>1.7</ele>
        <time>2015-12-07T09:18:20Z</time>
      </trkpt>
      <trkpt lat="46.32167" lon="-0.9611">
        <ele>2</ele>
        <time>2015-12-07T09:18:33Z</time>
      </trkpt>
      <trkpt lat="46.32176" lon="-0.96135">
        <ele>2.3</ele>
        <time>2015-12-07T09:18:46Z</time>
      </trkpt>
      <trkpt lat="46.32187" lon="-0.96155">
        <ele>1.5</ele>
        <time>2015-12-07T09:18:59Z</time>
      </trkpt>
      <trkpt lat="46.32199" lon="-0.96176">
        <ele>1.6</ele>
        <time>2015-12-07T09:19:12Z</time>
      </trkpt>
      <trkpt lat="46.32206" lon="-0.96201">
        <ele>2.2</ele>
        <time>2015-12-07T09:19:24Z</time>
      </trkpt>
      <trkpt lat="46.32212" lon="-0.96218">
        <ele>1.8</ele>
        <time>2015-12-07T09:19:33Z</time>
      </trkpt>
      <trkpt lat="46.32216" lon="-0.96229">
        <ele>1.6</ele>
        <time>2015-12-07T09:19:39Z</time>
      </trkpt>
      <trkpt lat="46.32225" lon="-0.96251">
        <ele>1.9</ele>
        <time>2015-12-07T09:19:51Z</time>
      </trkpt>
      <trkpt lat="46.32234" lon="-0.96276">
        <ele>2.1</ele>
        <time>2015-12-07T09:20:04Z</time>
      </trkpt>
      <trkpt lat="46.32241" lon="-0.963">
        <ele>1.6</ele>
        <time>2015-12-07T09:20:16Z</time>
      </trkpt>
      <trkpt lat="46.32247" lon="-0.96325">
        <ele>1.1</ele>
        <time>2015-12-07T09:20:28Z</time>
      </trkpt>
      <trkpt lat="46.32251" lon="-0.96352">
        <ele>2.2</ele>
        <time>2015-12-07T09:20:41Z</time>
      </trkpt>
      <trkpt lat="46.32253" lon="-0.96378">
        <ele>2.8</ele>
        <time>2015-12-07T09:20:54Z</time>
      </trkpt>
      <trkpt lat="46.32253" lon="-0.96404">
        <ele>2.8</ele>
        <time>2015-12-07T09:21:06Z</time>
      </trkpt>
      <trkpt lat="46.32251" lon="-0.96431">
        <ele>2.4</ele>
        <time>2015-12-07T09:21:19Z</time>
      </trkpt>
      <trkpt lat="46.32247" lon="-0.96458">
        <ele>1.6</ele>
        <time>2015-12-07T09:21:32Z</time>
      </trkpt>
      <trkpt lat="46.32242" lon="-0.96483">
        <ele>1.6</ele>
        <time>2015-12-07T09:21:45Z</time>
      </trkpt>
      <trkpt lat="46.32236" lon="-0.96508">
        <ele>2</ele>
        <time>2015-12-07T09:21:57Z</time>
      </trkpt>
      <trkpt lat="46.3223" lon="-0.96534">
        <ele>2.4</ele>
        <time>2015-12-07T09:22:09Z</time>
      </trkpt>
      <trkpt lat="46.32224" lon="-0.9656">
        <ele>2.6</ele>
        <time>2015-12-07T09:22:22Z</time>
      </trkpt>
      <trkpt lat="46.32221" lon="-0.96578">
        <ele>1.4</ele>
        <time>2015-12-07T09:22:31Z</time>
      </trkpt>
      <trkpt lat="46.32217" lon="-0.96605">
        <ele>1.2</ele>
        <time>2015-12-07T09:22:44Z</time>
      </trkpt>
      <trkpt lat="46.32209" lon="-0.9663">
        <ele>1.5</ele>
        <time>2015-12-07T09:22:57Z</time>
      </trkpt>
      <trkpt lat="46.32201" lon="-0.96655">
        <ele>2.2</ele>
        <time>2015-12-07T09:23:10Z</time>
      </trkpt>
      <trkpt lat="46.32191" lon="-0.96677">
        <ele>2.2</ele>
        <time>2015-12-07T09:23:23Z</time>
      </trkpt>
      <trkpt lat="46.32179" lon="-0.96698">
        <ele>1.6</ele>
        <time>2015-12-07T09:23:36Z</time>
      </trkpt>
      <trkpt lat="46.32167" lon="-0.96718">
        <ele>2</ele>
        <time>2015-12-07T09:23:49Z</time>
      </trkpt>
      <trkpt lat="46.32153" lon="-0.96737">
        <ele>2.2</ele>
        <time>2015-12-07T09:24:02Z</time>
      </trkpt>
      <trkpt lat="46.32139" lon="-0.96753">
        <ele>2.8</ele>
        <time>2015-12-07T09:24:15Z</time>
      </trkpt>
      <trkpt lat="46.32123" lon="-0.96766">
        <ele>2.2</ele>
        <time>2015-12-07T09:24:28Z</time>
      </trkpt>
      <trkpt lat="46.32105" lon="-0.96778">
        <ele>2.2</ele>
        <time>2015-12-07T09:24:41Z</time>
      </trkpt>
      <trkpt lat="46.32088" lon="-0.96788">
        <ele>2.2</ele>
        <time>2015-12-07T09:24:54Z</time>
      </trkpt>
      <trkpt lat="46.32071" lon="-0.96797">
        <ele>1.9</ele>
        <time>2015-12-07T09:25:07Z</time>
      </trkpt>
      <trkpt lat="46.32053" lon="-0.96805">
        <ele>2.1</ele>
        <time>2015-12-07T09:25:20Z</time>
      </trkpt>
      <trkpt lat="46.32035" lon="-0.96812">
        <ele>2.3</ele>
        <time>2015-12-07T09:25:33Z</time>
      </trkpt>
      <trkpt lat="46.32017" lon="-0.96821">
        <ele>2.1</ele>
        <time>2015-12-07T09:25:45Z</time>
      </trkpt>
      <trkpt lat="46.31999" lon="-0.96828">
        <ele>2.2</ele>
        <time>2015-12-07T09:25:58Z</time>
      </trkpt>
      <trkpt lat="46.31981" lon="-0.96836">
        <ele>2.5</ele>
        <time>2015-12-07T09:26:11Z</time>
      </trkpt>
      <trkpt lat="46.31964" lon="-0.96846">
        <ele>2.4</ele>
        <time>2015-12-07T09:26:24Z</time>
      </trkpt>
      <trkpt lat="46.31947" lon="-0.9686">
        <ele>2.8</ele>
        <time>2015-12-07T09:26:37Z</time>
      </trkpt>
      <trkpt lat="46.31932" lon="-0.96875">
        <ele>2.7</ele>
        <time>2015-12-07T09:26:49Z</time>
      </trkpt>
      <trkpt lat="46.31919" lon="-0.96896">
        <ele>2.6</ele>
        <time>2015-12-07T09:27:02Z</time>
      </trkpt>
      <trkpt lat="46.3191" lon="-0.96919">
        <ele>2.2</ele>
        <time>2015-12-07T09:27:14Z</time>
      </trkpt>
      <trkpt lat="46.31903" lon="-0.96944">
        <ele>2.5</ele>
        <time>2015-12-07T09:27:27Z</time>
      </trkpt>
      <trkpt lat="46.31898" lon="-0.96962">
        <ele>2.7</ele>
        <time>2015-12-07T09:27:36Z</time>
      </trkpt>
      <trkpt lat="46.31892" lon="-0.96989">
        <ele>2.4</ele>
        <time>2015-12-07T09:27:49Z</time>
      </trkpt>
      <trkpt lat="46.31885" lon="-0.97013">
        <ele>2.1</ele>
        <time>2015-12-07T09:28:01Z</time>
      </trkpt>
      <trkpt lat="46.31879" lon="-0.97037">
        <ele>2.4</ele>
        <time>2015-12-07T09:28:13Z</time>
      </trkpt>
      <trkpt lat="46.31872" lon="-0.97062">
        <ele>2.6</ele>
        <time>2015-12-07T09:28:26Z</time>
      </trkpt>
      <trkpt lat="46.31864" lon="-0.97086">
        <ele>2.8</ele>
        <time>2015-12-07T09:28:39Z</time>
      </trkpt>
      <trkpt lat="46.31855" lon="-0.97109">
        <ele>2.3</ele>
        <time>2015-12-07T09:28:51Z</time>
      </trkpt>
      <trkpt lat="46.31847" lon="-0.97132">
        <ele>2.5</ele>
        <time>2015-12-07T09:29:03Z</time>
      </trkpt>
      <trkpt lat="46.31839" lon="-0.97155">
        <ele>2.8</ele>
        <time>2015-12-07T09:29:15Z</time>
      </trkpt>
      <trkpt lat="46.31831" lon="-0.97181">
        <ele>2.5</ele>
        <time>2015-12-07T09:29:28Z</time>
      </trkpt>
      <trkpt lat="46.31822" lon="-0.97204">
        <ele>2.3</ele>
        <time>2015-12-07T09:29:40Z</time>
      </trkpt>
      <trkpt lat="46.31814" lon="-0.97228">
        <ele>2.1</ele>
        <time>2015-12-07T09:29:52Z</time>
      </trkpt>
      <trkpt lat="46.31805" lon="-0.97251">
        <ele>3</ele>
        <time>2015-12-07T09:30:04Z</time>
      </trkpt>
      <trkpt lat="46.31796" lon="-0.97274">
        <ele>2.1</ele>
        <time>2015-12-07T09:30:17Z</time>
      </trkpt>
      <trkpt lat="46.31786" lon="-0.97298">
        <ele>2.5</ele>
        <time>2015-12-07T09:30:29Z</time>
      </trkpt>
      <trkpt lat="46.31777" lon="-0.97322">
        <ele>2.4</ele>
        <time>2015-12-07T09:30:42Z</time>
      </trkpt>
      <trkpt lat="46.31769" lon="-0.97345">
        <ele>2.3</ele>
        <time>2015-12-07T09:30:54Z</time>
      </trkpt>
      <trkpt lat="46.31759" lon="-0.97368">
        <ele>2.7</ele>
        <time>2015-12-07T09:31:07Z</time>
      </trkpt>
      <trkpt lat="46.31752" lon="-0.97394">
        <ele>2.8</ele>
        <time>2015-12-07T09:31:20Z</time>
      </trkpt>
      <trkpt lat="46.31745" lon="-0.97418">
        <ele>2.2</ele>
        <time>2015-12-07T09:31:33Z</time>
      </trkpt>
      <trkpt lat="46.31737" lon="-0.97442">
        <ele>2</ele>
        <time>2015-12-07T09:31:45Z</time>
      </trkpt>
      <trkpt lat="46.3173" lon="-0.97467">
        <ele>2.6</ele>
        <time>2015-12-07T09:31:57Z</time>
      </trkpt>
      <trkpt lat="46.31722" lon="-0.97491">
        <ele>2.3</ele>
        <time>2015-12-07T09:32:10Z</time>
      </trkpt>
      <trkpt lat="46.31713" lon="-0.97514">
        <ele>2.3</ele>
        <time>2015-12-07T09:32:23Z</time>
      </trkpt>
      <trkpt lat="46.31705" lon="-0.97538">
        <ele>2.6</ele>
        <time>2015-12-07T09:32:35Z</time>
      </trkpt>
      <trkpt lat="46.31696" lon="-0.97563">
        <ele>2.7</ele>
        <time>2015-12-07T09:32:48Z</time>
      </trkpt>
      <trkpt lat="46.31687" lon="-0.97587">
        <ele>2</ele>
        <time>2015-12-07T09:33:01Z</time>
      </trkpt>
      <trkpt lat="46.3168" lon="-0.97612">
        <ele>2.5</ele>
        <time>2015-12-07T09:33:14Z</time>
      </trkpt>
      <trkpt lat="46.31674" lon="-0.97638">
        <ele>2.8</ele>
        <time>2015-12-07T09:33:28Z</time>
      </trkpt>
      <trkpt lat="46.31665" lon="-0.97662">
        <ele>2.2</ele>
        <time>2015-12-07T09:33:41Z</time>
      </trkpt>
      <trkpt lat="46.31656" lon="-0.97685">
        <ele>2.4</ele>
        <time>2015-12-07T09:33:54Z</time>
      </trkpt>
      <trkpt lat="46.31646" lon="-0.97708">
        <ele>2.7</ele>
        <time>2015-12-07T09:34:07Z</time>
      </trkpt>
      <trkpt lat="46.31638" lon="-0.97733">
        <ele>2.6</ele>
        <time>2015-12-07T09:34:20Z</time>
      </trkpt>
      <trkpt lat="46.31632" lon="-0.97759">
        <ele>2.3</ele>
        <time>2015-12-07T09:34:33Z</time>
      </trkpt>
      <trkpt lat="46.31624" lon="-0.97783">
        <ele>2.6</ele>
        <time>2015-12-07T09:34:45Z</time>
      </trkpt>
      <trkpt lat="46.31615" lon="-0.97806">
        <ele>2.8</ele>
        <time>2015-12-07T09:34:57Z</time>
      </trkpt>
      <trkpt lat="46.31608" lon="-0.97829">
        <ele>2.1</ele>
        <time>2015-12-07T09:35:09Z</time>
      </trkpt>
      <trkpt lat="46.316" lon="-0.97854">
        <ele>2.3</ele>
        <time>2015-12-07T09:35:22Z</time>
      </trkpt>
      <trkpt lat="46.31593" lon="-0.97879">
        <ele>2.7</ele>
        <time>2015-12-07T09:35:34Z</time>
      </trkpt>
      <trkpt lat="46.31585" lon="-0.97903">
        <ele>2.5</ele>
        <time>2015-12-07T09:35:47Z</time>
      </trkpt>
      <trkpt lat="46.31577" lon="-0.97926">
        <ele>2</ele>
        <time>2015-12-07T09:36:00Z</time>
      </trkpt>
      <trkpt lat="46.31568" lon="-0.9795">
        <ele>2</ele>
        <time>2015-12-07T09:36:13Z</time>
      </trkpt>
      <trkpt lat="46.3156" lon="-0.97974">
        <ele>2</ele>
        <time>2015-12-07T09:36:26Z</time>
      </trkpt>
      <trkpt lat="46.31552" lon="-0.98">
        <ele>2.1</ele>
        <time>2015-12-07T09:36:39Z</time>
      </trkpt>
      <trkpt lat="46.31545" lon="-0.98025">
        <ele>2.4</ele>
        <time>2015-12-07T09:36:52Z</time>
      </trkpt>
      <trkpt lat="46.31538" lon="-0.98049">
        <ele>2.6</ele>
        <time>2015-12-07T09:37:04Z</time>
      </trkpt>
      <trkpt lat="46.3153" lon="-0.98073">
        <ele>2.3</ele>
        <time>2015-12-07T09:37:16Z</time>
      </trkpt>
      <trkpt lat="46.31522" lon="-0.98098">
        <ele>2.1</ele>
        <time>2015-12-07T09:37:29Z</time>
      </trkpt>
      <trkpt lat="46.31515" lon="-0.98122">
        <ele>2.5</ele>
        <time>2015-12-07T09:37:42Z</time>
      </trkpt>
      <trkpt lat="46.31505" lon="-0.98145">
        <ele>2.7</ele>
        <time>2015-12-07T09:37:55Z</time>
      </trkpt>
      <trkpt lat="46.31496" lon="-0.98169">
        <ele>2.1</ele>
        <time>2015-12-07T09:38:08Z</time>
      </trkpt>
      <trkpt lat="46.31487" lon="-0.98193">
        <ele>2.5</ele>
        <time>2015-12-07T09:38:22Z</time>
      </trkpt>
      <trkpt lat="46.31479" lon="-0.98217">
        <ele>2.8</ele>
        <time>2015-12-07T09:38:34Z</time>
      </trkpt>
      <trkpt lat="46.31471" lon="-0.98242">
        <ele>2.3</ele>
        <time>2015-12-07T09:38:47Z</time>
      </trkpt>
      <trkpt lat="46.31462" lon="-0.98266">
        <ele>2.4</ele>
        <time>2015-12-07T09:39:00Z</time>
      </trkpt>
      <trkpt lat="46.31453" lon="-0.9829">
        <ele>2.7</ele>
        <time>2015-12-07T09:39:14Z</time>
      </trkpt>
      <trkpt lat="46.31444" lon="-0.98313">
        <ele>2.7</ele>
        <time>2015-12-07T09:39:27Z</time>
      </trkpt>
      <trkpt lat="46.31436" lon="-0.98336">
        <ele>2</ele>
        <time>2015-12-07T09:39:40Z</time>
      </trkpt>
      <trkpt lat="46.31427" lon="-0.98361">
        <ele>2.6</ele>
        <time>2015-12-07T09:39:54Z</time>
      </trkpt>
      <trkpt lat="46.3142" lon="-0.98385">
        <ele>2.9</ele>
        <time>2015-12-07T09:40:06Z</time>
      </trkpt>
      <trkpt lat="46.31411" lon="-0.98409">
        <ele>2.4</ele>
        <time>2015-12-07T09:40:18Z</time>
      </trkpt>
      <trkpt lat="46.31402" lon="-0.98433">
        <ele>2.5</ele>
        <time>2015-12-07T09:40:31Z</time>
      </trkpt>
      <trkpt lat="46.31392" lon="-0.98456">
        <ele>2.6</ele>
        <time>2015-12-07T09:40:45Z</time>
      </trkpt>
      <trkpt lat="46.31383" lon="-0.9848">
        <ele>2.1</ele>
        <time>2015-12-07T09:40:58Z</time>
      </trkpt>
      <trkpt lat="46.31376" lon="-0.98504">
        <ele>2.5</ele>
        <time>2015-12-07T09:41:11Z</time>
      </trkpt>
      <trkpt lat="46.31367" lon="-0.98527">
        <ele>2.8</ele>
        <time>2015-12-07T09:41:24Z</time>
      </trkpt>
      <trkpt lat="46.31358" lon="-0.9855">
        <ele>2.3</ele>
        <time>2015-12-07T09:41:37Z</time>
      </trkpt>
      <trkpt lat="46.31349" lon="-0.98572">
        <ele>2.4</ele>
        <time>2015-12-07T09:41:50Z</time>
      </trkpt>
      <trkpt lat="46.31339" lon="-0.98596">
        <ele>2.8</ele>
        <time>2015-12-07T09:42:03Z</time>
      </trkpt>
      <trkpt lat="46.31329" lon="-0.98618">
        <ele>2.8</ele>
        <time>2015-12-07T09:42:15Z</time>
      </trkpt>
      <trkpt lat="46.3132" lon="-0.98641">
        <ele>2.5</ele>
        <time>2015-12-07T09:42:28Z</time>
      </trkpt>
      <trkpt lat="46.31316" lon="-0.98652">
        <ele>2.6</ele>
        <time>2015-12-07T09:42:34Z</time>
      </trkpt>
      <trkpt lat="46.31307" lon="-0.98674">
        <ele>2.7</ele>
        <time>2015-12-07T09:42:47Z</time>
      </trkpt>
      <trkpt lat="46.31299" lon="-0.98698">
        <ele>2.2</ele>
        <time>2015-12-07T09:43:00Z</time>
      </trkpt>
      <trkpt lat="46.3129" lon="-0.98722">
        <ele>2.6</ele>
        <time>2015-12-07T09:43:14Z</time>
      </trkpt>
      <trkpt lat="46.3128" lon="-0.98744">
        <ele>2.2</ele>
        <time>2015-12-07T09:43:27Z</time>
      </trkpt>
      <trkpt lat="46.3127" lon="-0.98767">
        <ele>2.5</ele>
        <time>2015-12-07T09:43:40Z</time>
      </trkpt>
      <trkpt lat="46.31259" lon="-0.98789">
        <ele>3.1</ele>
        <time>2015-12-07T09:43:54Z</time>
      </trkpt>
      <trkpt lat="46.31246" lon="-0.98809">
        <ele>2.9</ele>
        <time>2015-12-07T09:44:07Z</time>
      </trkpt>
      <trkpt lat="46.31233" lon="-0.98829">
        <ele>2.7</ele>
        <time>2015-12-07T09:44:21Z</time>
      </trkpt>
      <trkpt lat="46.31219" lon="-0.98846">
        <ele>2.7</ele>
        <time>2015-12-07T09:44:34Z</time>
      </trkpt>
      <trkpt lat="46.31205" lon="-0.98863">
        <ele>3.2</ele>
        <time>2015-12-07T09:44:47Z</time>
      </trkpt>
      <trkpt lat="46.31198" lon="-0.98874">
        <ele>3</ele>
        <time>2015-12-07T09:44:55Z</time>
      </trkpt>
      <trkpt lat="46.31192" lon="-0.98879">
        <ele>2.8</ele>
        <time>2015-12-07T09:45:00Z</time>
      </trkpt>
      <trkpt lat="46.31179" lon="-0.98897">
        <ele>3</ele>
        <time>2015-12-07T09:45:14Z</time>
      </trkpt>
      <trkpt lat="46.31166" lon="-0.98917">
        <ele>3</ele>
        <time>2015-12-07T09:45:29Z</time>
      </trkpt>
      <trkpt lat="46.31161" lon="-0.98929">
        <ele>2.9</ele>
        <time>2015-12-07T09:47:08Z</time>
      </trkpt>
      <trkpt lat="46.3116" lon="-0.98926">
        <ele>3</ele>
        <time>2015-12-07T09:49:13Z</time>
      </trkpt>
      <trkpt lat="46.3116" lon="-0.98924">
        <ele>3</ele>
        <time>2015-12-07T09:49:59Z</time>
      </trkpt>
      <trkpt lat="46.31157" lon="-0.98939">
        <ele>2.8</ele>
        <time>2015-12-07T09:51:41Z</time>
      </trkpt>
      <trkpt lat="46.31145" lon="-0.98955">
        <ele>3.6</ele>
        <time>2015-12-07T09:52:15Z</time>
      </trkpt>
      <trkpt lat="46.31129" lon="-0.98953">
        <ele>3.8</ele>
        <time>2015-12-07T09:52:42Z</time>
      </trkpt>
      <trkpt lat="46.31111" lon="-0.98946">
        <ele>3</ele>
        <time>2015-12-07T09:52:58Z</time>
      </trkpt>
      <trkpt lat="46.31092" lon="-0.98949">
        <ele>3</ele>
        <time>2015-12-07T09:53:15Z</time>
      </trkpt>
      <trkpt lat="46.31075" lon="-0.98957">
        <ele>3</ele>
        <time>2015-12-07T09:53:29Z</time>
      </trkpt>
      <trkpt lat="46.31071" lon="-0.9896">
        <ele>3</ele>
        <time>2015-12-07T09:53:33Z</time>
      </trkpt>
      <trkpt lat="46.31054" lon="-0.98974">
        <ele>3.1</ele>
        <time>2015-12-07T09:53:46Z</time>
      </trkpt>
      <trkpt lat="46.31038" lon="-0.98985">
        <ele>3.5</ele>
        <time>2015-12-07T09:53:59Z</time>
      </trkpt>
      <trkpt lat="46.3102" lon="-0.98996">
        <ele>3.7</ele>
        <time>2015-12-07T09:54:12Z</time>
      </trkpt>
      <trkpt lat="46.31014" lon="-0.98993">
        <ele>3.5</ele>
        <time>2015-12-07T09:54:18Z</time>
      </trkpt>
      <trkpt lat="46.31012" lon="-0.98981">
        <ele>3.5</ele>
        <time>2015-12-07T09:54:25Z</time>
      </trkpt>
      <trkpt lat="46.31014" lon="-0.98954">
        <ele>3.2</ele>
        <time>2015-12-07T09:54:38Z</time>
      </trkpt>
      <trkpt lat="46.31015" lon="-0.98928">
        <ele>3</ele>
        <time>2015-12-07T09:54:50Z</time>
      </trkpt>
      <trkpt lat="46.31017" lon="-0.989">
        <ele>3.2</ele>
        <time>2015-12-07T09:55:03Z</time>
      </trkpt>
      <trkpt lat="46.31017" lon="-0.98873">
        <ele>3.4</ele>
        <time>2015-12-07T09:55:17Z</time>
      </trkpt>
      <trkpt lat="46.31019" lon="-0.98845">
        <ele>3.3</ele>
        <time>2015-12-07T09:55:29Z</time>
      </trkpt>
      <trkpt lat="46.31023" lon="-0.98818">
        <ele>3.2</ele>
        <time>2015-12-07T09:55:40Z</time>
      </trkpt>
      <trkpt lat="46.31024" lon="-0.98792">
        <ele>3.1</ele>
        <time>2015-12-07T09:55:52Z</time>
      </trkpt>
      <trkpt lat="46.3102" lon="-0.98771">
        <ele>3</ele>
        <time>2015-12-07T09:56:03Z</time>
      </trkpt>
      <trkpt lat="46.31013" lon="-0.9877">
        <ele>3</ele>
        <time>2015-12-07T09:56:08Z</time>
      </trkpt>
      <trkpt lat="46.30995" lon="-0.98769">
        <ele>3.2</ele>
        <time>2015-12-07T09:56:20Z</time>
      </trkpt>
      <trkpt lat="46.30977" lon="-0.98775">
        <ele>3.8</ele>
        <time>2015-12-07T09:56:34Z</time>
      </trkpt>
      <trkpt lat="46.30958" lon="-0.98778">
        <ele>4.5</ele>
        <time>2015-12-07T09:56:46Z</time>
      </trkpt>
      <trkpt lat="46.30941" lon="-0.98786">
        <ele>5.2</ele>
        <time>2015-12-07T09:56:57Z</time>
      </trkpt>
      <trkpt lat="46.3094" lon="-0.98784">
        <ele>5.2</ele>
        <time>2015-12-07T09:56:58Z</time>
      </trkpt>
      <trkpt lat="46.30934" lon="-0.98776">
        <ele>5.4</ele>
        <time>2015-12-07T09:57:03Z</time>
      </trkpt>
      <trkpt lat="46.30921" lon="-0.98773">
        <ele>5.8</ele>
        <time>2015-12-07T09:57:12Z</time>
      </trkpt>
      <trkpt lat="46.30921" lon="-0.98763">
        <ele>5.8</ele>
        <time>2015-12-07T09:57:17Z</time>
      </trkpt>
      <trkpt lat="46.30912" lon="-0.98746">
        <ele>6</ele>
        <time>2015-12-07T09:57:28Z</time>
      </trkpt>
      <trkpt lat="46.30897" lon="-0.98736">
        <ele>6</ele>
        <time>2015-12-07T09:57:38Z</time>
      </trkpt>
      <trkpt lat="46.30891" lon="-0.98728">
        <ele>6</ele>
        <time>2015-12-07T09:57:43Z</time>
      </trkpt>
      <trkpt lat="46.30884" lon="-0.98704">
        <ele>6</ele>
        <time>2015-12-07T09:57:55Z</time>
      </trkpt>
      <trkpt lat="46.30878" lon="-0.98678">
        <ele>5.4</ele>
        <time>2015-12-07T09:58:07Z</time>
      </trkpt>
      <trkpt lat="46.30875" lon="-0.98651">
        <ele>5</ele>
        <time>2015-12-07T09:58:18Z</time>
      </trkpt>
      <trkpt lat="46.3087" lon="-0.98626">
        <ele>5</ele>
        <time>2015-12-07T09:58:29Z</time>
      </trkpt>
      <trkpt lat="46.30865" lon="-0.98599">
        <ele>4.9</ele>
        <time>2015-12-07T09:58:41Z</time>
      </trkpt>
      <trkpt lat="46.30851" lon="-0.98584">
        <ele>5</ele>
        <time>2015-12-07T09:58:51Z</time>
      </trkpt>
      <trkpt lat="46.30832" lon="-0.98585">
        <ele>5</ele>
        <time>2015-12-07T09:59:03Z</time>
      </trkpt>
      <trkpt lat="46.30814" lon="-0.98585">
        <ele>4.3</ele>
        <time>2015-12-07T09:59:15Z</time>
      </trkpt>
      <trkpt lat="46.30801" lon="-0.98566">
        <ele>4</ele>
        <time>2015-12-07T09:59:26Z</time>
      </trkpt>
      <trkpt lat="46.30792" lon="-0.98541">
        <ele>3.7</ele>
        <time>2015-12-07T09:59:38Z</time>
      </trkpt>
      <trkpt lat="46.30773" lon="-0.98541">
        <ele>3.6</ele>
        <time>2015-12-07T09:59:50Z</time>
      </trkpt>
      <trkpt lat="46.30756" lon="-0.98539">
        <ele>3.9</ele>
        <time>2015-12-07T10:00:01Z</time>
      </trkpt>
      <trkpt lat="46.30741" lon="-0.98522">
        <ele>3.8</ele>
        <time>2015-12-07T10:00:12Z</time>
      </trkpt>
      <trkpt lat="46.30729" lon="-0.985">
        <ele>3.8</ele>
        <time>2015-12-07T10:00:23Z</time>
      </trkpt>
      <trkpt lat="46.30718" lon="-0.98478">
        <ele>4</ele>
        <time>2015-12-07T10:00:35Z</time>
      </trkpt>
      <trkpt lat="46.30703" lon="-0.98459">
        <ele>3.9</ele>
        <time>2015-12-07T10:00:47Z</time>
      </trkpt>
      <trkpt lat="46.30687" lon="-0.98445">
        <ele>4</ele>
        <time>2015-12-07T10:00:58Z</time>
      </trkpt>
      <trkpt lat="46.30672" lon="-0.98432">
        <ele>3.9</ele>
        <time>2015-12-07T10:01:09Z</time>
      </trkpt>
      <trkpt lat="46.30655" lon="-0.98417">
        <ele>4</ele>
        <time>2015-12-07T10:01:21Z</time>
      </trkpt>
      <trkpt lat="46.30639" lon="-0.98404">
        <ele>4</ele>
        <time>2015-12-07T10:01:32Z</time>
      </trkpt>
      <trkpt lat="46.30622" lon="-0.98395">
        <ele>4</ele>
        <time>2015-12-07T10:01:42Z</time>
      </trkpt>
      <trkpt lat="46.30605" lon="-0.98386">
        <ele>3.9</ele>
        <time>2015-12-07T10:01:53Z</time>
      </trkpt>
      <trkpt lat="46.30589" lon="-0.98373">
        <ele>3.9</ele>
        <time>2015-12-07T10:02:04Z</time>
      </trkpt>
      <trkpt lat="46.30571" lon="-0.98362">
        <ele>4</ele>
        <time>2015-12-07T10:02:16Z</time>
      </trkpt>
      <trkpt lat="46.30555" lon="-0.9835">
        <ele>4</ele>
        <time>2015-12-07T10:02:27Z</time>
      </trkpt>
      <trkpt lat="46.30537" lon="-0.98344">
        <ele>4</ele>
        <time>2015-12-07T10:02:38Z</time>
      </trkpt>
      <trkpt lat="46.30519" lon="-0.98338">
        <ele>4</ele>
        <time>2015-12-07T10:02:49Z</time>
      </trkpt>
      <trkpt lat="46.30501" lon="-0.98335">
        <ele>4</ele>
        <time>2015-12-07T10:03:01Z</time>
      </trkpt>
      <trkpt lat="46.30483" lon="-0.98335">
        <ele>4</ele>
        <time>2015-12-07T10:03:13Z</time>
      </trkpt>
      <trkpt lat="46.30464" lon="-0.98337">
        <ele>4</ele>
        <time>2015-12-07T10:03:25Z</time>
      </trkpt>
      <trkpt lat="46.30455" lon="-0.9834">
        <ele>4</ele>
        <time>2015-12-07T10:03:31Z</time>
      </trkpt>
      <trkpt lat="46.30453" lon="-0.98348">
        <ele>4</ele>
        <time>2015-12-07T10:03:35Z</time>
      </trkpt>
      <trkpt lat="46.30458" lon="-0.98375">
        <ele>4.5</ele>
        <time>2015-12-07T10:03:47Z</time>
      </trkpt>
      <trkpt lat="46.30459" lon="-0.98377">
        <ele>4.6</ele>
        <time>2015-12-07T10:03:48Z</time>
      </trkpt>
      <trkpt lat="46.30461" lon="-0.98385">
        <ele>4.9</ele>
        <time>2015-12-07T10:03:52Z</time>
      </trkpt>
      <trkpt lat="46.30466" lon="-0.98411">
        <ele>5</ele>
        <time>2015-12-07T10:04:03Z</time>
      </trkpt>
      <trkpt lat="46.3047" lon="-0.98438">
        <ele>5</ele>
        <time>2015-12-07T10:04:15Z</time>
      </trkpt>
      <trkpt lat="46.30474" lon="-0.98465">
        <ele>5.1</ele>
        <time>2015-12-07T10:04:26Z</time>
      </trkpt>
      <trkpt lat="46.30474" lon="-0.98486">
        <ele>5.5</ele>
        <time>2015-12-07T10:04:35Z</time>
      </trkpt>
      <trkpt lat="46.30468" lon="-0.9849">
        <ele>5.6</ele>
        <time>2015-12-07T10:04:39Z</time>
      </trkpt>
      <trkpt lat="46.30449" lon="-0.98498">
        <ele>5.9</ele>
        <time>2015-12-07T10:04:51Z</time>
      </trkpt>
      <trkpt lat="46.30432" lon="-0.98507">
        <ele>6</ele>
        <time>2015-12-07T10:05:02Z</time>
      </trkpt>
      <trkpt lat="46.30417" lon="-0.98522">
        <ele>6</ele>
        <time>2015-12-07T10:05:15Z</time>
      </trkpt>
      <trkpt lat="46.30416" lon="-0.98523">
        <ele>6</ele>
        <time>2015-12-07T10:05:16Z</time>
      </trkpt>
      <trkpt lat="46.30414" lon="-0.98526">
        <ele>6</ele>
        <time>2015-12-07T10:05:20Z</time>
      </trkpt>
      <trkpt lat="46.304" lon="-0.98535">
        <ele>6</ele>
        <time>2015-12-07T10:05:47Z</time>
      </trkpt>
    </trkseg>
  </trk>
</gpx>